createdAt,value
2019-03-27T00:04:13.160Z,13.70
2019-03-27T00:09:44.155Z,19.20
2019-03-27T00:15:12.982Z,18.02
2019-03-27T00:20:45.541Z,15.48
2019-03-27T00:26:08.027Z,18.15
2019-03-27T00:31:31.137Z,18.32
2019-03-27T00:36:54.203Z,17.02
2019-03-27T00:42:19.809Z,18.07
2019-03-27T00:47:43.156Z,18.12
2019-03-27T00:53:07.942Z,15.35
2019-03-27T00:58:34.822Z,15.35
2019-03-27T01:03:58.537Z,16.87
2019-03-27T01:09:22.483Z,12.68
2019-03-27T01:14:44.464Z,16.67
2019-03-27T01:20:07.777Z,16.23
2019-03-27T01:25:31.705Z,18.77
2019-03-27T01:30:55.155Z,14.10
2019-03-27T01:36:17.585Z,12.10
2019-03-27T01:41:41.431Z,15.88
2019-03-27T01:47:04.591Z,13.13
2019-03-27T01:52:27.215Z,16.23
2019-03-27T01:57:51.237Z,12.95
2019-03-27T02:03:15.125Z,20.72
2019-03-27T02:08:37.206Z,21.25
2019-03-27T02:13:59.344Z,14.23
2019-03-27T02:19:23.016Z,15.38
2019-03-27T02:24:45.732Z,15.25
2019-03-27T02:30:08.646Z,17.92
2019-03-27T02:35:30.945Z,18.25
2019-03-27T02:40:56.052Z,24.12
2019-03-27T02:46:24.909Z,20.35
2019-03-27T02:51:47.250Z,23.92
2019-03-27T02:57:11.173Z,25.05
2019-03-27T03:02:35.076Z,26.75
2019-03-27T03:07:57.711Z,24.12
2019-03-27T03:13:23.617Z,22.40
2019-03-27T03:18:46.586Z,24.65
2019-03-27T03:24:10.634Z,22.62
2019-03-27T03:29:35.971Z,24.47
2019-03-27T03:34:59.397Z,23.47
2019-03-27T03:40:21.875Z,24.55
2019-03-27T03:45:44.541Z,24.57
2019-03-27T03:51:07.936Z,24.52
2019-03-27T03:56:32.522Z,24.40
2019-03-27T04:01:55.314Z,23.45
2019-03-27T04:07:18.621Z,26.50
2019-03-27T04:12:42.432Z,27.67
2019-03-27T04:18:16.299Z,25.77
2019-03-27T04:23:39.792Z,26.77
2019-03-27T04:29:12.985Z,24.90
2019-03-27T04:34:35.526Z,26.80
2019-03-27T04:39:58.436Z,24.40
2019-03-27T04:45:21.198Z,24.75
2019-03-27T04:50:44.161Z,31.07
2019-03-27T04:56:07.526Z,27.35
2019-03-27T05:01:32.528Z,23.80
2019-03-27T05:06:54.538Z,22.37
2019-03-27T05:12:16.566Z,22.85
2019-03-27T05:17:45.990Z,24.70
2019-03-27T05:23:02.550Z,24.55
2019-03-27T05:28:24.949Z,22.98
2019-03-27T05:33:46.937Z,20.55
2019-03-27T05:39:09.088Z,21.77
2019-03-27T05:44:31.366Z,28.27
2019-03-27T05:49:53.530Z,19.55
2019-03-27T05:55:16.745Z,22.98
2019-03-27T06:00:39.380Z,25.10
2019-03-27T06:06:01.624Z,21.42
2019-03-27T06:11:24.694Z,20.97
2019-03-27T06:16:47.536Z,21.48
2019-03-27T06:22:09.912Z,22.95
2019-03-27T06:27:32.651Z,19.52
2019-03-27T06:32:55.574Z,18.02
2019-03-27T06:38:19.008Z,19.62
2019-03-27T06:43:42.358Z,17.65
2019-03-27T06:49:06.329Z,19.65
2019-03-27T06:54:28.134Z,19.00
2019-03-27T06:59:50.433Z,17.98
2019-03-27T07:05:14.119Z,19.45
2019-03-27T07:10:36.421Z,19.55
2019-03-27T07:15:58.545Z,19.87
2019-03-27T07:21:20.914Z,20.27
2019-03-27T07:26:42.960Z,18.07
2019-03-27T07:32:04.892Z,21.50
2019-03-27T07:37:28.410Z,23.00
2019-03-27T07:42:50.853Z,27.02
2019-03-27T07:48:13.024Z,18.52
2019-03-27T07:53:35.860Z,19.82
2019-03-27T07:58:59.777Z,21.45
2019-03-27T08:04:21.684Z,16.95
2019-03-27T08:09:44.664Z,18.73
2019-03-27T08:15:09.615Z,18.82
2019-03-27T08:20:31.558Z,17.15
2019-03-27T08:25:53.600Z,18.80
2019-03-27T08:31:16.756Z,39.98
2019-03-27T08:36:38.809Z,17.60
2019-03-27T08:42:01.047Z,17.50
2019-03-27T08:47:23.504Z,16.87
2019-03-27T08:52:45.730Z,18.92
2019-03-27T08:58:07.453Z,18.85
2019-03-27T09:03:29.915Z,17.67
2019-03-27T09:08:52.100Z,16.77
2019-03-27T09:14:14.239Z,16.87
2019-03-27T09:19:36.546Z,19.67
2019-03-27T09:24:59.988Z,15.93
2019-03-27T09:30:22.601Z,15.70
2019-03-27T09:35:44.996Z,16.75
2019-03-27T09:41:07.692Z,16.02
2019-03-27T09:46:29.882Z,18.15
2019-03-27T09:51:52.102Z,15.75
2019-03-27T09:57:18.431Z,15.32
2019-03-27T10:02:40.618Z,15.40
2019-03-27T10:08:02.978Z,16.00
2019-03-27T10:13:25.963Z,16.27
2019-03-27T10:18:49.301Z,16.30
2019-03-27T10:24:12.116Z,15.63
2019-03-27T10:29:44.626Z,14.90
2019-03-27T10:35:07.794Z,15.68
2019-03-27T10:40:30.116Z,18.27
2019-03-27T10:45:51.973Z,18.73
2019-03-27T10:51:15.072Z,16.55
2019-03-27T10:56:38.445Z,17.67
2019-03-27T11:02:00.868Z,16.65
2019-03-27T11:07:23.859Z,17.17
2019-03-27T11:12:47.479Z,15.55
2019-03-27T11:18:12.217Z,13.72
2019-03-27T11:23:36.368Z,16.00
2019-03-27T11:28:59.292Z,14.65
2019-03-27T11:34:21.843Z,13.58
2019-03-27T11:39:43.990Z,19.65
2019-03-27T11:45:08.452Z,13.78
2019-03-27T11:50:43.791Z,12.18
2019-03-27T11:55:55.408Z,13.30
2019-03-27T12:01:18.091Z,12.50
2019-03-27T12:06:40.750Z,16.45
2019-03-27T12:12:03.719Z,29.40
2019-03-27T12:17:26.831Z,13.25
2019-03-27T12:22:57.718Z,14.53
2019-03-27T12:28:13.854Z,15.93
2019-03-27T12:33:36.744Z,16.50
2019-03-27T12:38:59.035Z,14.23
2019-03-27T12:44:21.258Z,13.55
2019-03-27T12:49:44.456Z,15.35
2019-03-27T12:55:07.495Z,15.35
2019-03-27T13:00:29.715Z,11.95
2019-03-27T13:05:56.712Z,12.18
2019-03-27T13:11:19.765Z,10.78
2019-03-27T13:16:43.570Z,12.78
2019-03-27T13:22:06.208Z,12.03
2019-03-27T13:27:30.444Z,15.40
2019-03-27T13:32:56.956Z,14.95
2019-03-27T13:38:01.589Z,16.07
2019-03-27T13:43:05.464Z,13.50
2019-03-27T13:48:28.275Z,15.23
2019-03-27T13:54:00.994Z,12.68
2019-03-27T13:59:23.785Z,17.55
2019-03-27T14:04:46.800Z,16.45
2019-03-27T14:10:09.375Z,12.53
2019-03-27T14:15:31.976Z,13.30
2019-03-27T14:20:55.109Z,14.07
2019-03-27T14:26:17.827Z,14.53
2019-03-27T14:31:42.182Z,14.65
2019-03-27T14:37:05.360Z,14.10
2019-03-27T14:42:29.908Z,15.23
2019-03-27T14:47:52.837Z,12.90
2019-03-27T14:53:14.760Z,16.10
2019-03-27T14:58:37.347Z,11.95
2019-03-27T15:04:02.334Z,12.70
2019-03-27T15:09:26.005Z,14.65
2019-03-27T15:14:48.951Z,12.60
2019-03-27T15:20:12.682Z,14.10
2019-03-27T15:25:35.059Z,18.37
2019-03-27T15:30:39.602Z,15.88
2019-03-27T15:35:44.728Z,14.73
2019-03-27T15:41:07.339Z,16.70
2019-03-27T15:46:11.027Z,12.40
2019-03-27T15:51:14.645Z,13.48
2019-03-27T15:56:18.091Z,13.80
2019-03-27T16:01:21.719Z,17.32
2019-03-27T16:13:23.485Z,16.35
2019-03-27T16:59:27.535Z,14.07
2019-03-27T17:04:49.952Z,15.23
2019-03-27T17:11:15.782Z,14.38
2019-03-27T17:16:43.725Z,11.95
2019-03-27T17:22:18.550Z,12.15
2019-03-27T17:27:29.720Z,11.12
2019-03-27T17:32:51.914Z,20.05
2019-03-27T17:38:19.685Z,20.35
2019-03-27T17:43:48.250Z,19.07
2019-03-27T17:49:10.501Z,25.95
2019-03-27T17:54:32.344Z,15.95
2019-03-27T18:00:22.154Z,13.08
2019-03-27T18:05:52.401Z,13.05
2019-03-27T18:11:18.673Z,14.28
2019-03-27T18:16:42.288Z,14.05
2019-03-27T18:22:31.609Z,12.50
2019-03-27T18:28:59.379Z,15.08
2019-03-27T18:41:27.044Z,12.18
2019-03-27T18:54:27.259Z,17.57
2019-03-27T19:00:22.996Z,27.22
2019-03-27T19:06:46.309Z,20.40
2019-03-27T19:12:37.535Z,25.00
2019-03-27T19:18:00.316Z,17.52
2019-03-27T23:03:30.251Z,21.67
2019-03-27T23:54:55.561Z,21.30
